createdAt,value
2023-06-02T00:00:10.891Z,51.42
2023-06-02T00:01:10.916Z,47.35
2023-06-02T00:02:10.919Z,57.00
2023-06-02T00:03:10.899Z,45.63
2023-06-02T00:04:10.879Z,55.67
2023-06-02T00:05:10.895Z,44.87
2023-06-02T00:06:10.891Z,37.17
2023-06-02T00:07:10.841Z,40.15
2023-06-02T00:08:10.830Z,49.29
2023-06-02T00:09:10.867Z,40.47
2023-06-02T00:10:10.816Z,35.28
2023-06-02T00:11:10.832Z,51.19
2023-06-02T00:12:10.795Z,38.65
2023-06-02T00:13:10.793Z,39.18
2023-06-02T00:14:10.791Z,52.63
2023-06-02T00:15:10.809Z,54.44
2023-06-02T00:16:10.809Z,60.04
2023-06-02T00:17:10.770Z,47.89
2023-06-02T00:18:10.759Z,54.02
2023-06-02T00:19:10.755Z,60.21
2023-06-02T00:20:10.802Z,42.19
2023-06-02T00:21:10.748Z,51.49
2023-06-02T00:22:10.725Z,61.21
2023-06-02T00:23:10.729Z,53.63
2023-06-02T00:24:10.779Z,60.59
2023-06-02T00:25:10.734Z,60.72
2023-06-02T00:26:10.711Z,53.74
2023-06-02T00:27:10.694Z,56.48
2023-06-02T00:28:10.689Z,50.15
2023-06-02T00:29:10.712Z,47.17
2023-06-02T00:30:10.698Z,38.12
2023-06-02T00:31:10.683Z,46.94
2023-06-02T00:32:10.652Z,59.80
2023-06-02T00:33:10.647Z,56.27
2023-06-02T00:34:10.663Z,46.07
2023-06-02T00:35:10.634Z,38.95
2023-06-02T00:36:10.942Z,49.55
2023-06-02T00:37:10.618Z,58.43
2023-06-02T00:38:10.628Z,49.40
2023-06-02T00:39:10.635Z,47.13
2023-06-02T00:40:10.621Z,60.37
2023-06-02T00:41:10.596Z,47.23
2023-06-02T00:42:10.588Z,41.02
2023-06-02T00:43:10.606Z,56.44
2023-06-02T00:44:10.591Z,57.61
2023-06-02T00:45:10.563Z,49.00
2023-06-02T00:46:10.814Z,47.80
2023-06-02T00:47:10.543Z,53.57
2023-06-02T00:48:10.559Z,52.73
2023-06-02T00:49:10.561Z,46.62
2023-06-02T00:50:10.529Z,35.91
2023-06-02T00:51:10.516Z,45.59
2023-06-02T00:52:10.539Z,49.79
2023-06-02T00:53:10.528Z,38.76
2023-06-02T00:54:10.549Z,48.29
2023-06-02T00:55:10.483Z,38.14
2023-06-02T00:56:10.482Z,37.89
2023-06-02T00:57:10.475Z,43.75
2023-06-02T00:58:10.510Z,59.72
2023-06-02T00:59:10.453Z,54.84
2023-06-02T01:00:10.447Z,57.88
2023-06-02T01:01:10.476Z,52.47
2023-06-02T01:02:10.452Z,55.13
2023-06-02T01:03:10.470Z,45.89
2023-06-02T01:04:10.413Z,54.05
2023-06-02T01:05:10.418Z,51.14
2023-06-02T01:06:10.399Z,45.71
2023-06-02T01:07:10.425Z,44.77
2023-06-02T01:08:10.381Z,54.83
2023-06-02T01:09:10.380Z,48.96
2023-06-02T01:10:10.376Z,58.12
2023-06-02T01:11:10.369Z,51.36
2023-06-02T01:12:10.509Z,39.80
2023-06-02T01:13:10.363Z,56.46
2023-06-02T01:14:10.359Z,53.01
2023-06-02T01:15:10.350Z,46.31
2023-06-02T01:16:10.365Z,41.22
2023-06-02T01:17:10.339Z,53.19
2023-06-02T01:18:10.305Z,47.72
2023-06-02T01:19:10.305Z,51.03
2023-06-02T01:20:10.294Z,54.16
2023-06-02T01:21:10.313Z,49.24
2023-06-02T01:22:10.286Z,37.88
2023-06-02T01:23:10.269Z,49.49
2023-06-02T01:24:10.264Z,53.57
2023-06-02T01:25:10.256Z,51.28
2023-06-02T01:26:10.803Z,54.20
2023-06-02T01:27:10.236Z,61.40
2023-06-02T01:28:10.225Z,61.42
2023-06-02T01:29:10.217Z,42.99
2023-06-02T01:30:10.234Z,40.80
2023-06-02T01:31:10.228Z,61.40
2023-06-02T01:32:10.255Z,58.90
2023-06-02T01:33:10.266Z,52.39
2023-06-02T01:34:10.182Z,55.95
2023-06-02T01:35:10.202Z,57.43
2023-06-02T01:36:10.162Z,43.76
2023-06-02T01:37:10.154Z,46.95
2023-06-02T01:38:10.153Z,58.67
2023-06-02T01:39:10.140Z,59.88
2023-06-02T01:40:10.154Z,56.35
2023-06-02T01:41:10.129Z,55.22
2023-06-02T01:42:10.118Z,54.93
2023-06-02T01:43:10.113Z,46.90
2023-06-02T01:44:10.128Z,44.34
2023-06-02T01:45:10.122Z,47.53
2023-06-02T01:46:10.101Z,58.64
2023-06-02T01:47:10.077Z,45.70
2023-06-02T01:48:10.075Z,56.11
2023-06-02T01:49:10.088Z,53.87
2023-06-02T01:50:10.060Z,52.14
2023-06-02T01:51:10.050Z,44.15
2023-06-02T01:52:10.040Z,51.98
2023-06-02T01:53:10.034Z,58.75
2023-06-02T01:54:10.052Z,62.24
2023-06-02T01:55:10.021Z,52.45
2023-06-02T01:56:10.008Z,54.00
2023-06-02T01:57:10.006Z,53.25
2023-06-02T01:58:09.983Z,57.34
2023-06-02T01:59:11.011Z,49.25
2023-06-02T02:00:09.971Z,52.14
2023-06-02T02:01:10.000Z,49.83
2023-06-02T02:02:09.961Z,44.11
2023-06-02T02:03:10.037Z,57.67
2023-06-02T02:04:09.965Z,46.03
2023-06-02T02:05:09.929Z,56.10
2023-06-02T02:06:10.937Z,54.71
2023-06-02T02:07:09.919Z,56.64
2023-06-02T02:08:09.935Z,50.87
2023-06-02T02:09:09.899Z,45.85
2023-06-02T02:10:09.896Z,53.94
2023-06-02T02:11:09.884Z,52.59
2023-06-02T02:12:09.924Z,43.93
2023-06-02T02:13:09.905Z,42.90
2023-06-02T02:14:09.870Z,61.26
2023-06-02T02:15:09.870Z,68.11
2023-06-02T02:16:09.866Z,56.35
2023-06-02T02:17:09.844Z,50.20
2023-06-02T02:18:09.857Z,51.51
2023-06-02T02:19:09.827Z,42.07
2023-06-02T02:20:09.834Z,59.12
2023-06-02T02:21:09.812Z,61.07
2023-06-02T02:22:09.841Z,53.55
2023-06-02T02:23:09.835Z,53.23
2023-06-02T02:24:09.806Z,53.63
2023-06-02T02:25:09.782Z,62.80
2023-06-02T02:26:09.781Z,57.28
2023-06-02T02:27:09.786Z,55.75
2023-06-02T02:28:09.749Z,58.52
2023-06-02T02:29:09.745Z,54.23
2023-06-02T02:30:09.749Z,56.18
2023-06-02T02:31:09.775Z,53.79
2023-06-02T02:32:09.745Z,51.04
2023-06-02T02:33:09.774Z,54.54
2023-06-02T02:34:09.706Z,52.04
2023-06-02T02:35:09.698Z,59.46
2023-06-02T02:36:09.777Z,61.25
2023-06-02T02:37:09.709Z,59.65
2023-06-02T02:38:09.676Z,50.87
2023-06-02T02:39:09.664Z,51.01
2023-06-02T02:40:09.658Z,61.51
2023-06-02T02:41:09.673Z,51.52
2023-06-02T02:42:09.648Z,57.12
2023-06-02T02:43:09.645Z,64.26
2023-06-02T02:44:09.623Z,53.68
2023-06-02T02:45:09.761Z,52.48
2023-06-02T02:46:09.663Z,54.05
2023-06-02T02:47:09.611Z,53.00
2023-06-02T02:48:09.609Z,60.50
2023-06-02T02:49:09.586Z,58.22
2023-06-02T02:50:09.613Z,44.39
2023-06-02T02:51:09.600Z,51.56
2023-06-02T02:52:09.564Z,54.37
2023-06-02T02:53:09.558Z,57.35
2023-06-02T02:54:09.556Z,47.35
2023-06-02T02:55:09.562Z,54.73
2023-06-02T02:56:09.539Z,60.61
2023-06-02T02:57:09.532Z,55.89
2023-06-02T02:58:09.524Z,58.67
2023-06-02T02:59:09.533Z,54.88
2023-06-02T03:00:09.537Z,49.32
2023-06-02T03:01:09.529Z,61.81
2023-06-02T03:02:09.497Z,56.32
2023-06-02T03:03:09.483Z,58.73
2023-06-02T03:04:09.540Z,50.20
2023-06-02T03:05:09.486Z,57.94
2023-06-02T03:06:09.459Z,53.39
2023-06-02T03:07:11.421Z,61.99
2023-06-02T03:08:09.447Z,52.58
2023-06-02T03:09:09.468Z,56.09
2023-06-02T03:10:09.440Z,54.95
2023-06-02T03:11:09.419Z,54.49
2023-06-02T03:12:09.442Z,59.43
2023-06-02T03:13:09.401Z,59.58
2023-06-02T03:14:09.419Z,60.07
2023-06-02T03:15:09.387Z,52.10
2023-06-02T03:16:09.392Z,52.47
2023-06-02T03:17:09.497Z,54.91
2023-06-02T03:18:09.413Z,61.40
2023-06-02T03:19:09.383Z,63.19
2023-06-02T03:20:09.410Z,60.50
2023-06-02T03:21:09.385Z,66.04
2023-06-02T03:22:09.416Z,62.92
2023-06-02T03:23:09.374Z,62.21
2023-06-02T03:24:09.313Z,57.34
2023-06-02T03:25:09.308Z,57.78
2023-06-02T03:26:09.299Z,62.58
2023-06-02T03:27:09.289Z,61.44
2023-06-02T03:28:09.319Z,62.07
2023-06-02T03:29:09.285Z,63.12
2023-06-02T03:30:09.277Z,60.98
2023-06-02T03:31:09.287Z,66.03
2023-06-02T03:32:09.285Z,58.97
2023-06-02T03:33:09.365Z,62.53
2023-06-02T03:34:09.242Z,61.87
2023-06-02T03:35:09.240Z,60.42
2023-06-02T03:36:09.286Z,64.95
2023-06-02T03:37:09.271Z,61.93
2023-06-02T03:38:09.218Z,65.53
2023-06-02T03:39:09.249Z,62.47
2023-06-02T03:40:09.209Z,64.37
2023-06-02T03:41:09.192Z,64.36
2023-06-02T03:42:09.210Z,61.12
2023-06-02T03:43:09.185Z,63.96
2023-06-02T03:44:09.175Z,65.85
2023-06-02T03:45:09.161Z,67.01
2023-06-02T03:46:09.183Z,60.35
2023-06-02T03:47:09.170Z,65.68
2023-06-02T03:48:09.150Z,64.62
2023-06-02T03:49:09.135Z,58.96
2023-06-02T03:50:09.129Z,61.86
2023-06-02T03:51:10.588Z,59.68
2023-06-02T03:52:10.110Z,62.98
2023-06-02T03:53:09.110Z,66.15
2023-06-02T03:54:09.093Z,62.22
2023-06-02T03:55:09.090Z,61.63
2023-06-02T03:56:09.105Z,62.79
2023-06-02T03:57:09.081Z,60.30
2023-06-02T03:58:09.067Z,60.07
2023-06-02T03:59:09.063Z,57.97
2023-06-02T04:00:09.081Z,60.74
2023-06-02T04:01:09.075Z,59.51
2023-06-02T04:02:09.110Z,60.56
2023-06-02T04:03:09.066Z,58.93
2023-06-02T04:04:09.143Z,58.97
2023-06-02T04:05:09.088Z,59.91
2023-06-02T04:06:09.031Z,61.20
2023-06-02T04:07:08.988Z,62.89
2023-06-02T04:08:08.988Z,62.11
2023-06-02T04:09:08.983Z,59.56
2023-06-02T04:10:09.006Z,58.64
2023-06-02T04:11:08.964Z,58.43
2023-06-02T04:12:08.963Z,62.68
2023-06-02T04:13:08.953Z,60.85
2023-06-02T04:14:08.963Z,62.60
2023-06-02T04:15:08.960Z,65.81
2023-06-02T04:16:08.961Z,62.68
2023-06-02T04:17:08.927Z,63.02
2023-06-02T04:18:08.909Z,61.06
2023-06-02T04:19:08.927Z,61.79
2023-06-02T04:20:08.897Z,63.28
2023-06-02T04:21:08.888Z,64.49
2023-06-02T04:22:08.904Z,62.57
2023-06-02T04:23:08.872Z,62.81
2023-06-02T04:24:08.892Z,61.28
2023-06-02T04:25:08.878Z,64.73
2023-06-02T04:26:11.133Z,61.04
2023-06-02T04:27:09.848Z,60.23
2023-06-02T04:28:08.863Z,62.53
2023-06-02T04:29:08.853Z,63.70
2023-06-02T04:30:08.821Z,60.84
2023-06-02T04:31:08.806Z,61.52
2023-06-02T04:32:08.920Z,66.25
2023-06-02T04:33:08.860Z,62.94
2023-06-02T04:34:08.794Z,67.59
2023-06-02T04:35:08.781Z,61.73
2023-06-02T04:36:08.808Z,64.18
2023-06-02T04:37:08.786Z,62.94
2023-06-02T04:38:08.778Z,67.92
2023-06-02T04:39:08.752Z,65.05
2023-06-02T04:40:08.736Z,63.56
2023-06-02T04:41:08.750Z,68.17
2023-06-02T04:42:08.720Z,64.35
2023-06-02T04:43:08.744Z,64.31
2023-06-02T04:44:08.702Z,59.27
2023-06-02T04:45:08.696Z,61.98
2023-06-02T04:46:08.706Z,65.24
2023-06-02T04:47:08.707Z,62.60
2023-06-02T04:48:08.707Z,64.98
2023-06-02T04:49:08.686Z,66.93
2023-06-02T04:50:08.659Z,64.75
2023-06-02T04:51:08.666Z,65.56
2023-06-02T04:52:08.676Z,64.30
2023-06-02T04:53:08.639Z,66.89
2023-06-02T04:54:08.629Z,64.08
2023-06-02T04:55:08.622Z,67.53
2023-06-02T04:56:08.618Z,63.75
2023-06-02T04:57:08.662Z,65.11
2023-06-02T04:58:08.606Z,61.97
2023-06-02T04:59:08.595Z,66.46
2023-06-02T05:00:08.578Z,61.39
2023-06-02T05:01:08.598Z,66.63
2023-06-02T05:02:08.645Z,65.40
2023-06-02T05:03:08.570Z,65.69
2023-06-02T05:04:08.562Z,62.74
2023-06-02T05:05:08.553Z,65.11
2023-06-02T05:06:08.800Z,65.16
2023-06-02T05:07:08.574Z,65.87
2023-06-02T05:08:08.547Z,65.39
2023-06-02T05:09:08.525Z,64.70
2023-06-02T05:10:08.496Z,66.12
2023-06-02T05:11:08.525Z,66.42
2023-06-02T05:12:08.493Z,66.30
2023-06-02T05:13:08.495Z,64.83
2023-06-02T05:14:08.482Z,65.84
2023-06-02T05:15:08.468Z,64.94
2023-06-02T05:16:08.520Z,63.88
2023-06-02T05:17:08.456Z,64.73
2023-06-02T05:18:08.504Z,65.75
2023-06-02T05:19:08.431Z,64.81
2023-06-02T05:20:08.494Z,65.05
2023-06-02T05:21:08.453Z,64.57
2023-06-02T05:22:08.414Z,65.44
2023-06-02T05:23:08.407Z,65.26
2023-06-02T05:24:08.392Z,64.90
2023-06-02T05:25:11.142Z,64.18
2023-06-02T05:26:08.377Z,64.48
2023-06-02T05:27:08.371Z,65.14
2023-06-02T05:28:08.360Z,64.83
2023-06-02T05:29:08.353Z,62.03
2023-06-02T05:30:08.385Z,65.33
2023-06-02T05:31:08.350Z,66.75
2023-06-02T05:32:08.331Z,65.07
2023-06-02T05:33:08.326Z,65.16
2023-06-02T05:34:08.337Z,64.85
2023-06-02T05:35:08.329Z,64.99
2023-06-02T05:36:08.305Z,63.99
2023-06-02T05:37:08.293Z,64.54
2023-06-02T05:38:08.289Z,62.47
2023-06-02T05:39:08.310Z,65.92
2023-06-02T05:40:08.273Z,64.94
2023-06-02T05:41:08.267Z,63.80
2023-06-02T05:42:08.256Z,64.71
2023-06-02T05:43:08.257Z,66.85
2023-06-02T05:44:08.260Z,64.08
2023-06-02T05:45:08.237Z,65.85
2023-06-02T05:46:08.462Z,66.13
2023-06-02T05:47:08.214Z,64.88
2023-06-02T05:48:08.278Z,62.59
2023-06-02T05:49:08.222Z,63.53
2023-06-02T05:50:09.132Z,70.69
2023-06-02T05:51:08.187Z,61.29
2023-06-02T05:52:08.176Z,65.48
2023-06-02T05:53:09.200Z,65.25
2023-06-02T05:54:08.165Z,64.58
2023-06-02T05:55:08.153Z,63.76
2023-06-02T05:56:08.158Z,66.44
2023-06-02T05:57:08.147Z,63.92
2023-06-02T05:58:08.171Z,67.62
2023-06-02T05:59:08.129Z,63.80
2023-06-02T06:00:08.126Z,65.54
2023-06-02T06:01:08.116Z,66.34
2023-06-02T06:02:08.128Z,59.79
2023-06-02T06:03:08.321Z,64.40
2023-06-02T06:04:08.121Z,64.43
2023-06-02T06:05:08.082Z,62.04
2023-06-02T06:06:08.073Z,64.42
2023-06-02T06:07:08.101Z,63.93
2023-06-02T06:08:08.095Z,68.41
2023-06-02T06:09:08.050Z,66.37
2023-06-02T06:10:08.048Z,66.69
2023-06-02T06:11:08.057Z,66.09
2023-06-02T06:12:08.048Z,66.15
2023-06-02T06:13:08.011Z,64.89
2023-06-02T06:14:08.004Z,63.33
2023-06-02T06:15:07.997Z,65.04
2023-06-02T06:16:08.086Z,64.77
2023-06-02T06:17:08.016Z,65.12
2023-06-02T06:18:08.014Z,64.56
2023-06-02T06:19:07.975Z,63.02
2023-06-02T06:20:07.968Z,62.77
2023-06-02T06:21:07.979Z,64.11
2023-06-02T06:22:08.083Z,65.19
2023-06-02T06:23:07.948Z,63.65
2023-06-02T06:24:07.949Z,68.22
2023-06-02T06:25:07.922Z,62.83
2023-06-02T06:26:07.969Z,64.41
2023-06-02T06:27:10.335Z,58.30
2023-06-02T06:28:07.912Z,65.68
2023-06-02T06:29:07.900Z,62.53
2023-06-02T06:30:07.886Z,64.96
2023-06-02T06:31:07.940Z,65.87
2023-06-02T06:32:07.891Z,66.03
2023-06-02T06:33:07.871Z,68.36
2023-06-02T06:34:07.862Z,65.71
2023-06-02T06:35:07.877Z,64.74
2023-06-02T06:36:07.864Z,62.11
2023-06-02T06:37:07.838Z,60.66
2023-06-02T06:38:07.831Z,64.49
2023-06-02T06:39:07.825Z,64.89
2023-06-02T06:40:07.838Z,68.57
2023-06-02T06:41:07.808Z,65.04
2023-06-02T06:42:07.799Z,64.68
2023-06-02T06:43:23.030Z,66.84
2023-06-02T06:44:09.799Z,62.68
2023-06-02T06:45:07.821Z,62.99
2023-06-02T06:46:07.773Z,66.03
2023-06-02T06:47:07.770Z,64.97
2023-06-02T06:48:07.902Z,67.96
2023-06-02T06:49:07.775Z,61.69
2023-06-02T06:50:07.766Z,63.53
2023-06-02T06:51:07.722Z,65.72
2023-06-02T06:52:07.728Z,62.57
2023-06-02T06:53:07.721Z,65.48
2023-06-02T06:54:08.654Z,61.12
2023-06-02T06:55:08.695Z,62.09
2023-06-02T06:56:07.711Z,63.65
2023-06-02T06:57:07.690Z,60.73
2023-06-02T06:58:07.677Z,61.39
2023-06-02T06:59:07.702Z,63.37
2023-06-02T07:00:07.657Z,62.68
2023-06-02T07:01:07.651Z,60.28
2023-06-02T07:02:07.808Z,62.64
2023-06-02T07:03:07.773Z,60.92
2023-06-02T07:04:07.732Z,63.23
2023-06-02T07:05:07.626Z,64.02
2023-06-02T07:06:07.616Z,66.06
2023-06-02T07:07:07.610Z,63.48
2023-06-02T07:08:07.629Z,66.03
2023-06-02T07:09:07.616Z,62.32
2023-06-02T07:10:07.583Z,62.58
2023-06-02T07:11:07.582Z,61.95
2023-06-02T07:12:07.577Z,63.14
2023-06-02T07:13:07.589Z,59.83
2023-06-02T07:14:16.262Z,62.20
2023-06-02T07:15:09.547Z,62.70
2023-06-02T07:16:07.550Z,63.16
2023-06-02T07:17:07.553Z,58.11
2023-06-02T07:18:07.661Z,59.38
2023-06-02T07:19:07.519Z,61.72
2023-06-02T07:20:07.513Z,65.68
2023-06-02T07:21:07.499Z,63.07
2023-06-02T07:22:07.609Z,60.70
2023-06-02T07:23:07.491Z,65.92
2023-06-02T07:24:07.492Z,62.87
2023-06-02T07:25:07.479Z,63.25
2023-06-02T07:26:07.471Z,65.27
2023-06-02T07:27:07.485Z,62.74
2023-06-02T07:28:07.448Z,63.40
2023-06-02T07:29:07.450Z,62.70
2023-06-02T07:30:07.445Z,62.34
2023-06-02T07:31:10.977Z,64.25
2023-06-02T07:32:08.561Z,64.01
2023-06-02T07:33:07.421Z,60.19
2023-06-02T07:34:07.400Z,62.35
2023-06-02T07:35:07.395Z,60.00
2023-06-02T07:36:07.445Z,62.30
2023-06-02T07:37:07.374Z,62.56
2023-06-02T07:38:07.367Z,63.81
2023-06-02T07:39:07.362Z,63.00
2023-06-02T07:40:07.351Z,63.71
2023-06-02T07:41:07.368Z,62.96
2023-06-02T07:42:07.332Z,65.09
2023-06-02T07:43:07.325Z,60.63
2023-06-02T07:44:07.322Z,61.27
2023-06-02T07:45:07.332Z,64.91
2023-06-02T07:46:07.655Z,63.60
2023-06-02T07:47:07.352Z,64.59
2023-06-02T07:48:07.302Z,63.44
2023-06-02T07:49:07.270Z,62.54
2023-06-02T07:50:08.296Z,62.17
2023-06-02T07:51:07.268Z,63.05
2023-06-02T07:52:08.272Z,63.71
2023-06-02T07:53:07.254Z,64.25
2023-06-02T07:54:07.253Z,65.57
2023-06-02T07:55:07.262Z,62.16
2023-06-02T07:56:07.584Z,63.89
2023-06-02T07:57:08.221Z,61.56
2023-06-02T07:58:07.210Z,57.24
2023-06-02T07:59:07.198Z,64.71
2023-06-02T08:00:07.215Z,62.82
2023-06-02T08:01:07.486Z,60.73
2023-06-02T08:02:07.197Z,63.44
2023-06-02T08:03:07.319Z,61.15
2023-06-02T08:04:07.414Z,63.28
2023-06-02T08:05:07.200Z,62.47
2023-06-02T08:06:07.152Z,63.23
2023-06-02T08:07:07.146Z,64.34
2023-06-02T08:08:07.929Z,58.72
2023-06-02T08:09:07.153Z,60.93
2023-06-02T08:10:07.145Z,63.07
2023-06-02T08:11:07.111Z,62.52
2023-06-02T08:12:07.094Z,64.55
2023-06-02T08:13:07.090Z,64.48
2023-06-02T08:14:07.100Z,60.67
2023-06-02T08:15:07.088Z,61.95
2023-06-02T08:17:08.058Z,61.10
2023-06-02T08:18:07.158Z,60.77
2023-06-02T08:19:07.236Z,63.12
2023-06-02T08:20:07.036Z,58.44
2023-06-02T08:21:07.024Z,64.45
2023-06-02T08:22:07.116Z,63.81
2023-06-02T08:23:07.047Z,62.74
2023-06-02T08:24:07.007Z,62.44
2023-06-02T08:25:06.990Z,62.44
2023-06-02T08:26:06.985Z,62.85
2023-06-02T08:27:06.974Z,62.41
2023-06-02T08:28:06.989Z,64.80
2023-06-02T08:29:06.958Z,63.59
2023-06-02T08:30:06.947Z,62.70
2023-06-02T08:31:06.993Z,62.64
2023-06-02T08:32:08.072Z,61.47
2023-06-02T08:33:07.010Z,61.10
2023-06-02T08:34:06.929Z,64.03
2023-06-02T08:35:06.927Z,63.34
2023-06-02T08:36:06.960Z,61.56
2023-06-02T08:37:06.927Z,63.28
2023-06-02T08:38:06.913Z,63.79
2023-06-02T08:39:06.879Z,67.45
2023-06-02T08:40:06.967Z,64.93
2023-06-02T08:41:07.065Z,63.77
2023-06-02T08:42:06.881Z,56.98
2023-06-02T08:43:06.860Z,61.41
2023-06-02T08:44:06.862Z,64.52
2023-06-02T08:45:06.834Z,61.02
2023-06-02T08:46:06.883Z,61.49
2023-06-02T08:47:06.843Z,61.10
2023-06-02T08:48:06.839Z,61.96
2023-06-02T08:49:06.804Z,61.64
2023-06-02T08:50:06.806Z,62.56
2023-06-02T08:51:06.788Z,59.15
2023-06-02T08:52:06.806Z,65.90
2023-06-02T08:53:06.768Z,65.74
2023-06-02T08:54:06.761Z,60.60
2023-06-02T08:55:06.801Z,64.12
2023-06-02T08:56:07.043Z,63.85
2023-06-02T08:57:06.774Z,60.15
2023-06-02T08:58:06.737Z,64.41
2023-06-02T08:59:06.732Z,61.50
2023-06-02T09:00:06.729Z,64.20
2023-06-02T09:01:06.739Z,62.06
2023-06-02T09:02:06.716Z,61.24
2023-06-02T09:03:06.730Z,60.52
2023-06-02T09:04:08.464Z,62.73
2023-06-02T09:05:07.764Z,61.52
2023-06-02T09:06:06.920Z,63.64
2023-06-02T09:07:06.674Z,62.69
2023-06-02T09:08:06.668Z,60.20
2023-06-02T09:09:06.655Z,59.89
2023-06-02T09:10:06.680Z,61.80
2023-06-02T09:11:06.672Z,62.38
2023-06-02T09:12:06.622Z,63.31
2023-06-02T09:13:06.619Z,60.71
2023-06-02T09:14:06.618Z,63.73
2023-06-02T09:15:07.411Z,64.64
2023-06-02T09:16:06.935Z,62.03
2023-06-02T09:17:06.579Z,60.59
2023-06-02T09:18:06.630Z,65.06
2023-06-02T09:19:06.581Z,66.46
2023-06-02T09:20:06.585Z,59.47
2023-06-02T09:21:06.963Z,61.01
2023-06-02T09:22:06.653Z,60.77
2023-06-02T09:23:06.539Z,64.08
2023-06-02T09:25:07.555Z,62.88
2023-06-02T09:26:09.970Z,62.69
2023-06-02T09:27:08.512Z,58.63
2023-06-02T09:28:06.508Z,59.52
2023-06-02T09:29:06.528Z,62.92
2023-06-02T09:30:06.500Z,56.49
2023-06-02T09:31:06.688Z,62.88
2023-06-02T09:32:06.527Z,61.54
2023-06-02T09:33:06.525Z,60.47
2023-06-02T09:34:06.493Z,60.94
2023-06-02T09:35:06.465Z,60.08
2023-06-02T09:36:06.720Z,60.22
2023-06-02T09:37:06.440Z,61.09
2023-06-02T09:38:06.431Z,58.38
2023-06-02T09:39:06.441Z,60.82
2023-06-02T09:40:06.456Z,59.17
2023-06-02T09:41:06.407Z,61.12
2023-06-02T09:42:06.409Z,60.04
2023-06-02T09:43:06.411Z,60.77
2023-06-02T09:44:06.414Z,62.91
2023-06-02T09:45:06.388Z,63.84
2023-06-02T09:46:06.679Z,67.56
2023-06-02T09:47:06.479Z,61.34
2023-06-02T09:48:06.458Z,58.50
2023-06-02T09:49:06.467Z,60.64
2023-06-02T09:50:06.383Z,65.26
2023-06-02T09:51:06.327Z,63.54
2023-06-02T09:52:06.319Z,63.76
2023-06-02T09:53:06.344Z,61.20
2023-06-02T09:54:06.311Z,58.21
2023-06-02T09:55:06.297Z,59.89
2023-06-02T09:56:06.581Z,65.16
2023-06-02T09:57:06.307Z,66.47
2023-06-02T09:58:06.303Z,63.45
2023-06-02T09:59:06.291Z,62.14
2023-06-02T10:00:06.266Z,60.69
2023-06-02T10:01:06.554Z,60.01
2023-06-02T10:02:06.283Z,62.10
2023-06-02T10:03:06.333Z,63.25
2023-06-02T10:04:06.307Z,62.78
2023-06-02T10:05:06.219Z,61.54
2023-06-02T10:06:06.381Z,60.56
2023-06-02T10:07:06.231Z,59.87
2023-06-02T10:08:06.199Z,61.89
2023-06-02T10:09:06.216Z,57.61
2023-06-02T10:10:06.191Z,60.71
2023-06-02T10:11:06.342Z,53.14
2023-06-02T10:12:06.224Z,62.03
2023-06-02T10:13:06.178Z,66.68
2023-06-02T10:14:06.153Z,63.73
2023-06-02T10:15:06.152Z,61.20
2023-06-02T10:16:06.187Z,61.09
2023-06-02T10:17:06.128Z,62.23
2023-06-02T10:18:06.142Z,60.63
2023-06-02T10:19:06.115Z,61.10
2023-06-02T10:20:06.170Z,62.28
2023-06-02T10:21:06.408Z,60.64
2023-06-02T10:22:06.168Z,62.63
2023-06-02T10:23:06.136Z,63.39
2023-06-02T10:24:06.276Z,61.30
2023-06-02T10:25:06.097Z,63.58
2023-06-02T10:26:06.095Z,61.20
2023-06-02T10:27:06.072Z,59.87
2023-06-02T10:28:06.052Z,62.46
2023-06-02T10:29:06.035Z,59.72
2023-06-02T10:30:07.066Z,60.70
2023-06-02T10:31:06.488Z,61.97
2023-06-02T10:32:06.018Z,59.88
2023-06-02T10:33:06.069Z,63.51
2023-06-02T10:34:06.009Z,59.92
2023-06-02T10:35:06.027Z,57.88
2023-06-02T10:36:06.581Z,58.79
2023-06-02T10:37:05.982Z,58.56
2023-06-02T10:38:05.981Z,57.83
2023-06-02T10:39:05.975Z,57.56
2023-06-02T10:40:06.046Z,56.63
2023-06-02T10:41:06.150Z,59.24
2023-06-02T10:42:05.946Z,63.50
2023-06-02T10:43:05.942Z,61.74
2023-06-02T10:44:05.966Z,58.22
2023-06-02T10:45:05.943Z,60.82
2023-06-02T10:46:05.903Z,61.61
2023-06-02T10:47:06.052Z,61.21
2023-06-02T10:48:05.965Z,61.69
2023-06-02T10:49:05.908Z,62.27
2023-06-02T10:50:09.301Z,62.29
2023-06-02T10:51:07.886Z,61.76
2023-06-02T10:52:05.865Z,59.98
2023-06-02T10:53:05.869Z,59.56
2023-06-02T10:54:05.942Z,60.08
2023-06-02T10:55:05.844Z,61.42
2023-06-02T10:56:05.828Z,63.03
2023-06-02T10:57:05.822Z,62.94
2023-06-02T10:58:05.838Z,60.78
2023-06-02T10:59:05.832Z,63.45
2023-06-02T11:00:05.799Z,58.33
2023-06-02T11:01:06.094Z,64.95
2023-06-02T11:02:05.820Z,61.14
2023-06-02T11:03:05.961Z,60.14
2023-06-02T11:04:05.872Z,62.13
2023-06-02T11:05:05.762Z,65.48
2023-06-02T11:06:05.751Z,62.73
2023-06-02T11:07:05.744Z,65.26
2023-06-02T11:08:06.054Z,61.23
2023-06-02T11:09:05.734Z,60.15
2023-06-02T11:10:05.727Z,64.17
2023-06-02T11:11:05.712Z,57.81
2023-06-02T11:12:06.052Z,58.20
2023-06-02T11:13:06.049Z,56.60
2023-06-02T11:14:06.696Z,62.26
2023-06-02T11:15:05.814Z,61.10
2023-06-02T11:16:05.673Z,58.31
2023-06-02T11:17:06.684Z,59.79
2023-06-02T11:18:05.701Z,58.78
2023-06-02T11:19:05.660Z,55.06
2023-06-02T11:20:05.638Z,59.65
2023-06-02T11:21:05.721Z,58.15
2023-06-02T11:22:05.734Z,57.84
2023-06-02T11:23:05.632Z,55.70
2023-06-02T11:24:05.617Z,58.16
2023-06-02T11:25:05.605Z,56.76
2023-06-02T11:26:05.626Z,56.82
2023-06-02T11:27:05.612Z,57.04
2023-06-02T11:28:05.583Z,58.61
2023-06-02T11:29:05.572Z,58.94
2023-06-02T11:30:05.570Z,59.44
2023-06-02T11:31:06.132Z,62.64
2023-06-02T11:32:05.557Z,59.73
2023-06-02T11:33:05.590Z,57.69
2023-06-02T11:34:05.533Z,63.72
2023-06-02T11:35:05.536Z,64.64
2023-06-02T11:36:05.549Z,61.98
2023-06-02T11:37:05.517Z,61.48
2023-06-02T11:38:05.507Z,59.60
2023-06-02T11:39:05.491Z,59.45
2023-06-02T11:40:05.573Z,59.49
2023-06-02T11:41:05.742Z,58.69
2023-06-02T11:42:05.482Z,61.34
2023-06-02T11:43:05.514Z,62.77
2023-06-02T11:44:05.524Z,64.01
2023-06-02T11:45:05.495Z,63.63
2023-06-02T11:46:05.447Z,64.53
2023-06-02T11:47:05.438Z,63.39
2023-06-02T11:48:05.472Z,63.22
2023-06-02T11:49:05.441Z,62.84
2023-06-02T11:50:05.445Z,67.41
2023-06-02T11:51:05.405Z,59.55
2023-06-02T11:52:05.429Z,64.56
2023-06-02T11:53:05.411Z,61.68
2023-06-02T11:54:05.401Z,55.92
2023-06-02T11:55:05.513Z,63.11
2023-06-02T11:56:05.377Z,61.80
2023-06-02T11:57:05.351Z,63.02
2023-06-02T11:58:05.350Z,62.13
2023-06-02T11:59:05.362Z,61.20
2023-06-02T12:00:05.329Z,60.45
2023-06-02T12:01:05.328Z,61.34
2023-06-02T12:02:05.324Z,64.99
2023-06-02T12:03:05.423Z,62.41
2023-06-02T12:04:05.666Z,59.69
2023-06-02T12:05:05.418Z,62.92
2023-06-02T12:06:05.286Z,59.58
2023-06-02T12:07:05.276Z,64.23
2023-06-02T12:08:05.290Z,63.35
2023-06-02T12:09:05.279Z,66.35
2023-06-02T12:10:05.280Z,63.11
2023-06-02T12:11:05.466Z,65.38
2023-06-02T12:12:05.231Z,62.62
2023-06-02T12:13:05.252Z,62.81
2023-06-02T12:14:05.215Z,61.30
2023-06-02T12:15:05.210Z,63.56
2023-06-02T12:16:05.202Z,63.68
2023-06-02T12:17:05.244Z,66.82
2023-06-02T12:18:05.282Z,63.81
2023-06-02T12:19:05.178Z,64.96
2023-06-02T12:20:05.216Z,65.06
2023-06-02T12:21:05.478Z,61.26
2023-06-02T12:22:05.246Z,63.37
2023-06-02T12:23:05.171Z,63.50
2023-06-02T12:24:05.139Z,61.80
2023-06-02T12:25:05.129Z,63.37
2023-06-02T12:26:05.126Z,63.11
2023-06-02T12:27:05.158Z,62.00
2023-06-02T12:28:05.112Z,62.75
2023-06-02T12:29:05.109Z,63.29
2023-06-02T12:30:05.088Z,64.68
2023-06-02T12:31:06.358Z,62.86
2023-06-02T12:32:05.098Z,62.52
2023-06-02T12:33:05.112Z,62.39
2023-06-02T12:34:05.066Z,60.16
2023-06-02T12:35:05.062Z,59.27
2023-06-02T12:36:05.072Z,57.78
2023-06-02T12:37:05.118Z,64.11
2023-06-02T12:38:05.032Z,61.37
2023-06-02T12:39:05.026Z,62.93
2023-06-02T12:40:05.040Z,63.42
2023-06-02T12:41:05.270Z,62.70
2023-06-02T12:42:05.032Z,62.78
2023-06-02T12:43:05.028Z,63.18
2023-06-02T12:44:04.986Z,59.94
2023-06-02T12:45:04.986Z,62.96
2023-06-02T12:46:05.048Z,61.35
2023-06-02T12:47:05.012Z,62.58
2023-06-02T12:48:05.058Z,60.13
2023-06-02T12:49:04.943Z,62.71
2023-06-02T12:50:04.944Z,59.89
2023-06-02T12:51:06.197Z,61.11
2023-06-02T12:52:04.917Z,62.54
2023-06-02T12:53:04.913Z,62.52
2023-06-02T12:54:04.900Z,63.11